Plymouth, California
Current Conditions -  °F | °C
As of 11:15 AM on Sunday 21 Dec 2014 (Local Time) from KPVF Reporting Station
Overcast Overcast  
Wind Chill: 54°   Ceiling: 300
Heat Index: 54°   Visibility: 0.25mi
Dew Point: 54°   Wind: 5mph
Humidity: 100%   Direction: 200°SSW
Pressure: 30.31"   Gusts: NA
Location:  38.48°N, 120.84°W
Report Text: KPVF 211915Z AUTO 20004KT 1/4SM OVC003 12/12 A3031 RMK AO1
Loading
Personal Weather Stations






























Interactive Weather Map New forecast layout! Learn more

10-Day Weather Forecast

Advertisements
Track Severe Weather on mobile